createdAt,value
2022-12-22T00:01:57.116Z,3.22
2022-12-22T00:04:44.228Z,3.23
2022-12-22T00:07:31.194Z,3.17
2022-12-22T00:10:19.331Z,3.22
2022-12-22T00:13:06.777Z,3.17
2022-12-22T00:15:53.828Z,3.13
2022-12-22T00:18:40.867Z,3.19
2022-12-22T00:21:28.806Z,3.19
2022-12-22T00:24:16.255Z,3.18
2022-12-22T00:27:05.005Z,3.19
2022-12-22T00:29:55.373Z,3.15
2022-12-22T00:32:42.941Z,3.19
2022-12-22T00:35:31.855Z,3.13
2022-12-22T00:38:18.778Z,3.16
2022-12-22T00:41:05.859Z,3.16
2022-12-22T00:43:56.291Z,3.17
2022-12-22T00:46:43.537Z,3.17
2022-12-22T00:49:30.962Z,3.15
2022-12-22T00:52:18.081Z,3.09
2022-12-22T00:55:04.846Z,3.07
2022-12-22T00:57:53.539Z,3.12
2022-12-22T01:00:42.117Z,3.21
2022-12-22T01:03:30.250Z,3.22
2022-12-22T01:06:18.150Z,3.28
2022-12-22T01:09:05.639Z,3.31
2022-12-22T01:11:52.817Z,3.39
2022-12-22T01:14:40.219Z,3.33
2022-12-22T01:17:29.790Z,3.37
2022-12-22T01:20:17.056Z,3.34
2022-12-22T01:23:03.951Z,3.33
2022-12-22T01:25:50.957Z,3.30
2022-12-22T01:28:37.979Z,3.35
2022-12-22T01:31:34.261Z,3.32
2022-12-22T01:34:22.518Z,3.39
2022-12-22T01:37:09.677Z,3.40
2022-12-22T01:39:56.651Z,3.41
2022-12-22T01:42:44.327Z,3.41
2022-12-22T01:45:38.970Z,3.43
2022-12-22T01:48:29.058Z,3.46
2022-12-22T01:51:18.689Z,3.43
2022-12-22T01:54:05.903Z,3.45
2022-12-22T01:56:53.127Z,3.44
2022-12-22T01:59:40.291Z,3.51
2022-12-22T02:02:28.329Z,3.47
2022-12-22T02:05:18.691Z,3.41
2022-12-22T02:08:14.987Z,3.39
2022-12-22T02:11:19.979Z,3.40
2022-12-22T02:14:12.436Z,3.31
2022-12-22T02:17:03.846Z,3.29
2022-12-22T02:20:14.148Z,3.26
2022-12-22T02:23:06.484Z,3.21
2022-12-22T02:25:58.159Z,3.28
2022-12-22T02:28:46.846Z,3.24
2022-12-22T02:31:33.859Z,3.30
2022-12-22T02:34:21.009Z,3.29
2022-12-22T02:37:12.688Z,3.30
2022-12-22T02:40:07.249Z,3.27
2022-12-22T02:42:55.659Z,3.24
2022-12-22T02:45:51.121Z,3.32
2022-12-22T02:48:41.860Z,3.32
2022-12-22T02:51:36.155Z,3.33
2022-12-22T02:54:23.657Z,3.32
2022-12-22T02:57:11.186Z,3.35
2022-12-22T02:59:58.020Z,3.48
2022-12-22T03:02:46.917Z,3.50
2022-12-22T03:05:33.851Z,3.45
2022-12-22T03:08:21.009Z,3.38
2022-12-22T03:11:07.870Z,3.30
2022-12-22T03:13:55.144Z,3.26
2022-12-22T03:16:42.239Z,3.18
2022-12-22T03:19:30.861Z,3.15
2022-12-22T03:22:17.861Z,3.10
2022-12-22T03:25:05.410Z,3.06
2022-12-22T03:27:35.028Z,2.96
2022-12-22T03:30:05.403Z,2.89
2022-12-22T03:32:35.130Z,2.80
2022-12-22T03:35:06.891Z,2.69
2022-12-22T03:37:36.426Z,2.56
2022-12-22T03:40:06.795Z,2.47
2022-12-22T03:42:54.725Z,2.39
2022-12-22T03:45:42.034Z,2.31
2022-12-22T03:48:11.683Z,2.29
2022-12-22T03:50:43.002Z,2.29
2022-12-22T03:53:12.588Z,2.22
2022-12-22T03:55:42.544Z,2.24
2022-12-22T03:58:12.135Z,2.39
2022-12-22T04:00:42.223Z,2.74
2022-12-22T04:03:12.013Z,2.85
2022-12-22T04:05:43.515Z,2.95
2022-12-22T04:08:13.284Z,3.00
2022-12-22T04:11:00.632Z,3.02
2022-12-22T04:13:30.242Z,3.03
2022-12-22T04:16:00.278Z,2.73
2022-12-22T04:18:29.875Z,3.09
2022-12-22T04:21:01.245Z,3.17
2022-12-22T04:23:30.916Z,3.23
2022-12-22T04:26:01.265Z,3.15
2022-12-22T04:28:30.897Z,3.09
2022-12-22T04:31:00.725Z,3.15
2022-12-22T04:33:30.272Z,3.23
2022-12-22T04:36:02.854Z,3.30
2022-12-22T04:38:32.453Z,3.34
2022-12-22T04:41:02.542Z,3.33
2022-12-22T04:43:32.222Z,3.34
2022-12-22T04:46:02.315Z,3.32
2022-12-22T04:48:32.335Z,3.34
2022-12-22T04:51:04.154Z,3.42
2022-12-22T04:53:33.835Z,3.45
2022-12-22T04:56:04.676Z,3.46
2022-12-22T04:58:34.887Z,3.49
2022-12-22T05:01:11.750Z,3.52
2022-12-22T05:03:41.474Z,3.57
2022-12-22T05:06:13.325Z,3.57
2022-12-22T05:08:42.881Z,3.63
2022-12-22T05:11:12.905Z,3.63
2022-12-22T05:13:42.548Z,3.66
2022-12-22T05:16:13.714Z,3.64
2022-12-22T05:18:44.544Z,3.67
2022-12-22T05:21:16.797Z,3.69
2022-12-22T05:23:46.653Z,3.64
2022-12-22T05:26:17.178Z,3.70
2022-12-22T05:28:48.147Z,3.72
2022-12-22T05:31:19.806Z,3.77
2022-12-22T05:33:49.765Z,3.74
2022-12-22T05:36:21.373Z,3.76
2022-12-22T05:38:50.944Z,3.78
2022-12-22T05:41:20.946Z,3.80
2022-12-22T05:43:50.554Z,3.83
2022-12-22T05:46:20.533Z,3.80
2022-12-22T05:48:50.277Z,3.86
2022-12-22T05:51:21.704Z,3.82
2022-12-22T05:53:51.495Z,3.79
2022-12-22T05:56:21.578Z,3.78
2022-12-22T05:58:51.164Z,3.77
2022-12-22T06:01:21.135Z,3.73
2022-12-22T06:03:54.815Z,3.70
2022-12-22T06:06:31.633Z,3.67
2022-12-22T06:09:01.245Z,3.63
2022-12-22T06:11:31.173Z,3.58
2022-12-22T06:14:00.963Z,3.54
2022-12-22T06:16:30.822Z,3.53
2022-12-22T06:19:00.440Z,3.49
2022-12-22T06:21:31.765Z,3.57
2022-12-22T06:24:01.451Z,3.57
2022-12-22T06:26:31.495Z,3.52
2022-12-22T06:29:01.144Z,3.59
2022-12-22T06:31:31.259Z,3.58
2022-12-22T06:34:00.916Z,3.60
2022-12-22T06:36:32.445Z,3.61
2022-12-22T06:39:02.108Z,3.58
2022-12-22T06:41:50.164Z,3.57
2022-12-22T06:44:19.872Z,3.52
2022-12-22T06:46:50.116Z,3.50
2022-12-22T06:49:19.975Z,3.43
2022-12-22T06:51:51.545Z,3.36
2022-12-22T06:54:26.172Z,3.36
2022-12-22T06:56:56.629Z,3.39
2022-12-22T06:59:26.355Z,3.40
2022-12-22T07:01:56.510Z,3.37
2022-12-22T07:04:26.292Z,3.41
2022-12-22T07:06:57.751Z,3.48
2022-12-22T07:09:27.657Z,3.50
2022-12-22T07:11:57.594Z,3.53
2022-12-22T07:14:27.423Z,3.60
2022-12-22T07:16:57.845Z,3.46
2022-12-22T07:19:28.576Z,3.47
2022-12-22T07:21:59.955Z,3.47
2022-12-22T07:24:29.957Z,3.41
2022-12-22T07:27:02.325Z,3.35
2022-12-22T07:29:32.035Z,3.40
2022-12-22T07:32:02.298Z,3.31
2022-12-22T07:34:31.875Z,3.40
2022-12-22T07:37:03.203Z,3.43
2022-12-22T07:39:32.917Z,3.46
2022-12-22T07:42:20.585Z,3.49
2022-12-22T07:44:50.115Z,3.56
2022-12-22T07:47:20.863Z,3.57
2022-12-22T07:50:08.096Z,3.58
2022-12-22T07:52:39.575Z,3.58
2022-12-22T07:55:10.244Z,3.52
2022-12-22T07:57:40.195Z,3.57
2022-12-22T08:00:10.283Z,3.56
2022-12-22T08:02:46.346Z,3.49
2022-12-22T08:05:21.415Z,3.57
2022-12-22T08:07:53.651Z,3.59
2022-12-22T08:10:23.348Z,3.60
2022-12-22T08:12:53.606Z,3.64
2022-12-22T08:15:23.298Z,3.62
2022-12-22T08:17:53.902Z,3.62
2022-12-22T08:20:23.528Z,3.62
2022-12-22T08:22:55.345Z,3.68
2022-12-22T08:25:25.081Z,3.73
2022-12-22T08:27:57.438Z,3.76
2022-12-22T08:30:28.573Z,3.85
2022-12-22T08:33:00.603Z,3.85
2022-12-22T08:35:30.431Z,3.87
2022-12-22T08:38:02.293Z,3.90
2022-12-22T08:40:33.797Z,3.95
2022-12-22T08:43:05.983Z,3.97
2022-12-22T08:45:35.776Z,3.99
2022-12-22T08:48:06.964Z,4.00
2022-12-22T08:50:37.853Z,4.04
2022-12-22T08:53:23.668Z,4.06
2022-12-22T08:56:01.028Z,4.06
2022-12-22T08:58:31.435Z,4.08
2022-12-22T09:01:01.412Z,4.15
2022-12-22T09:03:31.748Z,4.19
2022-12-22T09:06:02.394Z,4.22
2022-12-22T09:08:34.385Z,4.21
2022-12-22T09:11:04.747Z,4.23
2022-12-22T09:13:34.783Z,4.20
2022-12-22T09:16:08.653Z,4.20
2022-12-22T09:18:38.948Z,4.22
2022-12-22T09:21:09.273Z,4.25
2022-12-22T09:23:41.200Z,4.24
2022-12-22T09:26:12.017Z,4.22
2022-12-22T09:28:48.143Z,4.21
2022-12-22T09:31:20.092Z,4.20
2022-12-22T09:33:50.423Z,4.20
2022-12-22T09:36:21.194Z,4.23
2022-12-22T09:38:52.973Z,4.23
2022-12-22T09:41:26.722Z,4.23
2022-12-22T09:43:57.815Z,4.22
2022-12-22T09:46:29.116Z,4.26
2022-12-22T09:49:03.286Z,4.23
2022-12-22T09:51:34.185Z,4.25
2022-12-22T09:54:05.665Z,4.27
2022-12-22T09:56:35.424Z,4.26
2022-12-22T09:59:13.386Z,4.24
2022-12-22T10:02:10.262Z,4.25
2022-12-22T10:04:51.463Z,4.21
2022-12-22T10:07:26.710Z,4.16
2022-12-22T10:09:58.145Z,4.20
2022-12-22T10:12:27.853Z,4.22
2022-12-22T10:14:58.517Z,4.28
2022-12-22T10:17:29.613Z,4.40
2022-12-22T10:20:09.409Z,4.52
2022-12-22T10:22:47.149Z,4.57
2022-12-22T10:25:35.771Z,4.54
2022-12-22T10:28:21.477Z,4.48
2022-12-22T10:30:51.945Z,4.48
2022-12-22T10:33:21.593Z,4.50
2022-12-22T10:35:52.811Z,4.52
2022-12-22T10:38:24.408Z,4.52
2022-12-22T10:41:02.510Z,4.57
2022-12-22T10:43:34.990Z,4.52
2022-12-22T10:46:06.065Z,4.50
2022-12-22T10:48:36.755Z,4.47
2022-12-22T10:51:08.645Z,4.47
2022-12-22T10:53:44.193Z,4.48
2022-12-22T10:56:22.910Z,4.44
2022-12-22T10:58:53.323Z,4.45
2022-12-22T11:01:25.730Z,4.47
2022-12-22T11:03:56.523Z,4.43
2022-12-22T11:06:26.658Z,4.44
2022-12-22T11:09:16.886Z,4.44
2022-12-22T11:11:52.264Z,4.43
2022-12-22T11:14:29.272Z,4.49
2022-12-22T11:17:03.531Z,4.53
2022-12-22T11:19:57.869Z,4.54
2022-12-22T11:22:33.516Z,4.59
2022-12-22T11:25:16.865Z,4.66
2022-12-22T11:27:56.275Z,4.66
2022-12-22T11:30:29.072Z,4.66
2022-12-22T11:33:07.696Z,4.65
2022-12-22T11:35:45.066Z,4.63
2022-12-22T11:38:22.222Z,4.67
2022-12-22T11:40:55.770Z,4.69
2022-12-22T11:43:32.027Z,4.67
2022-12-22T11:46:08.211Z,4.69
2022-12-22T11:48:43.663Z,4.68
2022-12-22T11:51:26.985Z,4.68
2022-12-22T11:54:14.680Z,4.65
2022-12-22T11:56:46.764Z,4.65
2022-12-22T11:59:29.780Z,4.61
2022-12-22T12:02:13.776Z,4.61
2022-12-22T12:04:58.605Z,4.59
2022-12-22T12:07:32.333Z,4.59
2022-12-22T12:10:08.483Z,4.56
2022-12-22T12:12:44.682Z,4.55
2022-12-22T12:15:24.637Z,4.54
2022-12-22T12:18:01.199Z,4.22
2022-12-22T12:20:39.384Z,4.51
2022-12-22T12:23:18.572Z,4.49
2022-12-22T12:25:54.443Z,4.49
2022-12-22T12:28:31.073Z,4.50
2022-12-22T12:31:03.499Z,4.48
2022-12-22T12:33:38.268Z,4.49
2022-12-22T12:36:13.422Z,4.47
2022-12-22T12:41:42.073Z,4.43
2022-12-22T12:44:14.741Z,4.42
2022-12-22T12:47:00.044Z,4.43
2022-12-22T12:49:50.003Z,4.39
2022-12-22T12:52:20.272Z,4.35
2022-12-22T12:54:50.206Z,4.30
2022-12-22T12:57:28.370Z,4.31
2022-12-22T13:00:00.317Z,4.30
2022-12-22T13:02:42.453Z,4.28
2022-12-22T13:05:14.802Z,4.25
2022-12-22T13:08:03.683Z,4.26
2022-12-22T13:10:34.442Z,4.22
2022-12-22T13:13:05.074Z,4.21
2022-12-22T13:15:36.008Z,4.18
2022-12-22T13:18:10.812Z,4.17
2022-12-22T13:20:40.635Z,4.18
2022-12-22T13:23:13.132Z,4.18
2022-12-22T13:25:48.980Z,4.16
2022-12-22T13:28:20.050Z,4.18
2022-12-22T13:30:50.411Z,4.17
2022-12-22T13:33:26.784Z,4.17
2022-12-22T13:35:59.247Z,4.15
2022-12-22T13:38:30.655Z,4.16
2022-12-22T13:41:01.799Z,4.13
2022-12-22T13:43:33.889Z,4.14
2022-12-22T13:46:04.522Z,4.15
2022-12-22T13:48:45.483Z,4.12
2022-12-22T13:51:19.577Z,4.07
2022-12-22T13:54:12.003Z,4.07
2022-12-22T13:56:46.984Z,4.06
2022-12-22T13:59:20.551Z,4.04
2022-12-22T14:01:51.180Z,4.02
2022-12-22T14:04:23.168Z,4.01
2022-12-22T14:06:53.064Z,3.99
2022-12-22T14:09:24.845Z,3.98
2022-12-22T14:11:57.685Z,3.98
2022-12-22T14:14:30.944Z,3.99
2022-12-22T14:17:01.464Z,3.97
2022-12-22T14:19:37.836Z,3.93
2022-12-22T14:22:10.176Z,3.95
2022-12-22T14:24:43.697Z,3.99
2022-12-22T14:27:18.994Z,3.94
2022-12-22T14:29:49.331Z,3.93
2022-12-22T14:32:35.153Z,3.90
2022-12-22T14:35:17.811Z,3.89
2022-12-22T14:37:47.715Z,3.88
2022-12-22T14:40:30.570Z,3.86
2022-12-22T14:43:01.279Z,3.86
2022-12-22T14:45:31.423Z,3.85
2022-12-22T14:48:01.126Z,3.89
2022-12-22T14:50:32.774Z,3.88
2022-12-22T14:53:03.758Z,3.89
2022-12-22T14:55:35.135Z,3.90
2022-12-22T14:58:06.863Z,3.89
2022-12-22T15:00:38.180Z,3.90
2022-12-22T15:03:27.718Z,3.91
2022-12-22T15:06:19.393Z,3.91
2022-12-22T15:08:49.615Z,3.92
2022-12-22T15:11:23.823Z,3.89
2022-12-22T15:13:53.883Z,3.89
2022-12-22T15:16:25.117Z,3.89
2022-12-22T15:18:55.795Z,3.87
2022-12-22T15:21:27.659Z,3.88
2022-12-22T15:23:58.124Z,3.90
2022-12-22T15:26:31.808Z,3.87
2022-12-22T15:29:07.609Z,3.85
2022-12-22T15:31:42.833Z,3.85
2022-12-22T15:34:19.505Z,3.86
2022-12-22T15:36:54.318Z,3.85
2022-12-22T15:39:28.437Z,3.84
2022-12-22T15:42:00.141Z,3.84
2022-12-22T15:44:36.812Z,3.85
2022-12-22T15:47:12.185Z,3.82
2022-12-22T15:49:42.729Z,3.79
2022-12-22T15:52:17.763Z,3.83
2022-12-22T15:54:49.911Z,3.84
2022-12-22T15:57:20.837Z,3.83
2022-12-22T15:59:51.650Z,3.87
2022-12-22T16:02:27.878Z,3.85
2022-12-22T16:05:00.754Z,3.84
2022-12-22T16:07:33.476Z,3.84
2022-12-22T16:10:05.347Z,3.87
2022-12-22T16:12:43.879Z,3.87
2022-12-22T16:15:17.215Z,3.85
2022-12-22T16:17:54.121Z,3.86
2022-12-22T16:20:26.287Z,3.87
2022-12-22T16:23:03.921Z,3.90
2022-12-22T16:25:38.847Z,3.88
2022-12-22T16:28:18.825Z,3.86
2022-12-22T16:30:50.260Z,3.85
2022-12-22T16:33:20.946Z,3.85
2022-12-22T16:35:50.626Z,3.85
2022-12-22T16:38:22.671Z,3.83
2022-12-22T16:40:53.375Z,3.87
2022-12-22T16:46:15.600Z,3.86
2022-12-22T16:48:48.581Z,3.84
2022-12-22T16:51:19.882Z,3.86
2022-12-22T16:53:51.774Z,3.88
2022-12-22T16:56:23.522Z,3.85
2022-12-22T16:58:56.243Z,3.84
2022-12-22T17:01:32.455Z,3.79
2022-12-22T17:04:06.567Z,3.79
2022-12-22T17:06:41.712Z,3.83
2022-12-22T17:09:17.339Z,3.76
2022-12-22T17:11:47.833Z,3.69
2022-12-22T17:14:22.156Z,3.64
2022-12-22T17:16:57.015Z,3.62
2022-12-22T17:19:33.429Z,3.69
2022-12-22T17:22:07.296Z,3.70
2022-12-22T17:24:43.109Z,3.72
2022-12-22T17:27:15.859Z,3.79
2022-12-22T17:29:51.084Z,3.80
2022-12-22T17:32:23.658Z,3.86
2022-12-22T17:34:56.072Z,3.77
2022-12-22T17:37:27.255Z,3.74
2022-12-22T17:40:02.896Z,3.77
2022-12-22T17:42:34.296Z,3.77
2022-12-22T17:45:10.312Z,3.78
2022-12-22T17:47:43.023Z,3.78
2022-12-22T17:50:15.680Z,3.79
2022-12-22T17:52:50.320Z,3.86
2022-12-22T17:56:05.982Z,3.95
2022-12-22T17:58:23.015Z,3.94
2022-12-22T18:00:56.095Z,3.98
2022-12-22T18:03:29.086Z,3.98
2022-12-22T18:06:06.056Z,4.01
2022-12-22T18:08:41.711Z,4.04
2022-12-22T18:11:19.828Z,4.02
2022-12-22T18:13:54.256Z,4.02
2022-12-22T18:16:27.491Z,4.04
2022-12-22T18:18:59.102Z,4.02
2022-12-22T18:21:29.853Z,4.03
2022-12-22T18:23:59.702Z,4.02
2022-12-22T18:26:31.971Z,4.03
2022-12-22T18:29:02.173Z,4.02
2022-12-22T18:31:32.185Z,3.81
2022-12-22T18:34:01.983Z,4.03
2022-12-22T18:36:33.339Z,4.07
2022-12-22T18:39:03.823Z,4.04
2022-12-22T18:41:38.775Z,4.02
2022-12-22T18:44:12.622Z,3.97
2022-12-22T18:46:42.894Z,3.98
2022-12-22T18:49:14.534Z,4.01
2022-12-22T18:51:45.924Z,3.94
2022-12-22T18:54:29.653Z,3.96
2022-12-22T18:57:02.202Z,4.00
2022-12-22T18:59:33.523Z,3.99
2022-12-22T19:02:05.485Z,3.99
2022-12-22T19:04:35.275Z,3.98
2022-12-22T19:07:06.194Z,4.04
2022-12-22T19:09:35.979Z,4.03
2022-12-22T19:12:08.234Z,4.01
2022-12-22T19:14:38.478Z,4.08
2022-12-22T19:17:10.937Z,4.11
2022-12-22T19:19:40.654Z,4.05
2022-12-22T19:22:16.798Z,3.98
2022-12-22T19:24:48.198Z,4.07
2022-12-22T19:27:23.630Z,4.05
2022-12-22T19:30:03.072Z,4.07
2022-12-22T19:32:46.769Z,4.08
2022-12-22T19:35:23.454Z,4.16
2022-12-22T19:37:54.917Z,4.18
2022-12-22T19:40:26.245Z,4.15
2022-12-22T19:43:00.383Z,4.13
2022-12-22T19:45:36.214Z,4.16
2022-12-22T19:48:18.952Z,4.14
2022-12-22T19:50:49.495Z,4.11
2022-12-22T19:53:20.076Z,4.11
2022-12-22T19:55:52.428Z,4.10
2022-12-22T19:58:25.793Z,4.06
2022-12-22T20:00:55.988Z,4.07
2022-12-22T20:03:27.594Z,4.07
2022-12-22T20:05:57.621Z,4.02
2022-12-22T20:08:27.745Z,4.01
2022-12-22T20:10:58.984Z,4.00
2022-12-22T20:13:33.102Z,4.03
2022-12-22T20:16:02.932Z,4.03
2022-12-22T20:18:32.924Z,4.02
2022-12-22T20:21:04.171Z,4.03
2022-12-22T20:23:36.070Z,4.00
2022-12-22T20:26:07.510Z,3.99
2022-12-22T20:28:39.936Z,3.96
2022-12-22T20:31:10.169Z,3.96
2022-12-22T20:33:40.171Z,3.99
2022-12-22T20:36:16.954Z,3.97
2022-12-22T20:38:47.200Z,3.96
2022-12-22T20:41:17.404Z,3.93
2022-12-22T20:43:49.671Z,3.90
2022-12-22T20:46:21.879Z,3.91
2022-12-22T20:48:56.361Z,3.90
2022-12-22T20:51:26.725Z,3.87
2022-12-22T20:53:57.512Z,3.94
2022-12-22T20:56:30.023Z,4.07
2022-12-22T20:59:03.888Z,4.07
2022-12-22T21:01:34.607Z,4.21
2022-12-22T21:04:05.914Z,4.28
2022-12-22T21:06:38.233Z,4.28
2022-12-22T21:09:09.550Z,4.24
2022-12-22T21:11:41.188Z,4.19
2022-12-22T21:14:17.443Z,4.26
2022-12-22T21:17:17.156Z,4.37
2022-12-22T21:19:52.144Z,4.50
2022-12-22T21:22:24.809Z,4.50
2022-12-22T21:24:57.144Z,4.64
2022-12-22T21:27:34.932Z,4.70
2022-12-22T21:30:22.879Z,4.81
2022-12-22T21:32:54.182Z,4.84
2022-12-22T21:35:28.423Z,4.84
2022-12-22T21:38:00.511Z,4.87
2022-12-22T21:40:33.588Z,4.76
2022-12-22T21:43:04.607Z,4.88
2022-12-22T21:45:42.905Z,4.80
2022-12-22T21:48:15.426Z,4.80
2022-12-22T21:50:47.740Z,4.84
2022-12-22T21:53:22.522Z,4.87
2022-12-22T21:55:54.266Z,4.84
2022-12-22T21:58:25.693Z,4.83
2022-12-22T22:00:58.145Z,4.75
2022-12-22T22:03:29.047Z,4.72
2022-12-22T22:06:02.678Z,4.72
2022-12-22T22:08:35.539Z,4.74
2022-12-22T22:11:13.000Z,4.72
2022-12-22T22:13:45.255Z,4.68
2022-12-22T22:16:19.784Z,4.69
2022-12-22T22:18:52.254Z,4.77
2022-12-22T22:21:24.764Z,4.82
2022-12-22T22:23:57.015Z,4.86
2022-12-22T22:26:28.895Z,4.85
2022-12-22T22:29:01.186Z,4.86
2022-12-22T22:31:34.118Z,4.90
2022-12-22T22:34:04.823Z,4.93
2022-12-22T22:36:35.584Z,4.94
2022-12-22T22:39:07.409Z,4.93
2022-12-22T22:41:43.509Z,5.02
2022-12-22T22:44:16.552Z,5.03
2022-12-22T22:46:50.958Z,5.03
2022-12-22T22:49:28.237Z,5.07
2022-12-22T22:52:00.433Z,5.10
2022-12-22T22:54:30.255Z,5.13
2022-12-22T22:57:00.326Z,5.10
2022-12-22T22:59:29.962Z,5.08
2022-12-22T23:02:01.597Z,5.14
2022-12-22T23:04:31.699Z,5.10
2022-12-22T23:07:05.520Z,5.06
2022-12-22T23:09:35.503Z,4.99
2022-12-22T23:12:05.828Z,5.04
2022-12-22T23:14:35.619Z,5.08
2022-12-22T23:17:08.122Z,5.10
2022-12-22T23:19:38.127Z,4.96
2022-12-22T23:22:08.380Z,4.93
2022-12-22T23:24:38.040Z,4.85
2022-12-22T23:27:08.085Z,4.87
2022-12-22T23:29:37.897Z,4.85
2022-12-22T23:32:09.368Z,4.76
2022-12-22T23:34:39.054Z,4.69
2022-12-22T23:37:13.403Z,4.61
2022-12-22T23:39:48.419Z,4.60
2022-12-22T23:42:18.319Z,4.51
2022-12-22T23:44:47.967Z,4.44
2022-12-22T23:47:19.381Z,4.40
2022-12-22T23:49:49.074Z,4.39
2022-12-22T23:52:19.012Z,4.33
2022-12-22T23:54:48.673Z,4.40
2022-12-22T23:57:18.778Z,4.30
2022-12-22T23:59:48.554Z,4.33
